Time;durP1;ratioP1;P1;durP2;ratioP2;P2;SDS_P1;SDS_P2;PMS_P1;PMS_P2;Temp;Humidity;BMP_temperature;BMP_pressure;BME280_temperature;BME280_humidity;BME280_pressure;Samples;Min_cycle;Max_cycle;Signal;HPM_P1;HPM_P2
2023/08/16 00:02:21;;;;;;;4.55;3.78;;;;;;;21.63;67.67;97517.44;4973958;28;20037;-88
2023/08/16 00:04:46;;;;;;;4.63;3.85;;;;;;;21.60;67.66;97515.38;4972538;28;20386;-85
2023/08/16 00:07:11;;;;;;;3.65;3.35;;;;;;;21.55;67.73;97504.94;4970794;28;20040;-86
2023/08/16 00:09:38;;;;;;;3.80;3.15;;;;;;;21.54;68.05;97503.34;5002121;28;20085;-85
2023/08/16 00:12:04;;;;;;;3.47;3.28;;;;;;;21.47;67.83;97488.72;4958225;28;20125;-87
2023/08/16 00:14:29;;;;;;;3.65;3.35;;;;;;;21.49;68.06;97497.13;4965434;28;20077;-88
2023/08/16 00:16:55;;;;;;;3.60;3.30;;;;;;;21.51;68.12;97497.59;4983939;28;20038;-86
2023/08/16 00:19:20;;;;;;;3.38;3.17;;;;;;;21.47;68.22;97490.56;4978696;28;20100;-79
2023/08/16 00:21:45;;;;;;;3.08;2.88;;;;;;;21.46;68.05;97495.09;4992477;28;20042;-79
2023/08/16 00:24:11;;;;;;;3.35;3.05;;;;;;;21.45;68.41;97488.19;4972289;28;20038;-79
2023/08/16 00:26:36;;;;;;;3.63;3.33;;;;;;;21.43;68.54;97484.28;4985544;28;20498;-78
2023/08/16 00:29:02;;;;;;;3.88;3.55;;;;;;;21.40;68.32;97480.38;4956171;28;20034;-79
2023/08/16 00:31:27;;;;;;;3.10;2.90;;;;;;;21.46;68.40;97479.19;4976172;28;20039;-79
2023/08/16 00:33:53;;;;;;;3.70;3.40;;;;;;;21.40;68.45;97469.00;4976143;28;20486;-79
2023/08/16 00:36:18;;;;;;;3.58;3.28;;;;;;;21.41;68.02;97476.66;4956358;28;20033;-79
2023/08/16 00:38:44;;;;;;;3.60;3.30;;;;;;;21.38;68.01;97474.63;4969873;28;20397;-79
2023/08/16 00:41:10;;;;;;;4.40;4.00;;;;;;;21.39;68.40;97473.53;4991505;28;20042;-80
2023/08/16 00:43:35;;;;;;;4.05;3.72;;;;;;;21.37;68.11;97470.41;4985050;28;20030;-79
2023/08/16 00:46:01;;;;;;;4.15;3.83;;;;;;;21.30;68.29;97459.47;4975318;28;20379;-80
2023/08/16 00:48:30;;;;;;;4.35;3.95;;;;;;;21.30;68.59;97460.28;4975219;28;20073;-78
2023/08/16 00:50:56;;;;;;;4.63;3.65;;;;;;;21.30;68.29;97473.50;4991350;28;20121;-79
2023/08/16 00:53:22;;;;;;;3.72;3.42;;;;;;;21.29;68.06;97479.88;4967460;28;20445;-78
2023/08/16 00:55:47;;;;;;;3.67;3.35;;;;;;;21.29;67.96;97476.47;4975700;28;20040;-80
2023/08/16 00:58:14;;;;;;;3.55;3.33;;;;;;;21.22;68.15;97462.91;4974922;28;20036;-79
2023/08/16 01:00:39;;;;;;;3.45;3.20;;;;;;;21.33;68.20;97485.34;4946912;28;20493;-80
2023/08/16 01:03:04;;;;;;;3.28;2.90;;;;;;;21.37;67.83;97481.00;4989791;23;20057;-81
2023/08/16 01:05:31;;;;;;;3.80;3.28;;;;;;;21.32;67.78;97479.28;4971541;28;20065;-81
2023/08/16 01:07:56;;;;;;;3.85;3.30;;;;;;;21.28;67.88;97478.34;4936536;28;20073;-80
2023/08/16 01:10:46;;;;;;;3.25;3.03;;;;;;;21.37;68.24;97475.72;4939298;28;20066;-80
2023/08/16 01:13:14;;;;;;;3.50;3.20;;;;;;;21.29;68.03;97468.53;4970024;28;20034;-80
2023/08/16 01:15:42;;;;;;;3.13;2.50;;;;;;;21.29;68.13;97473.81;4966368;28;20035;-82
2023/08/16 01:18:11;;;;;;;3.13;2.83;;;;;;;21.26;68.25;97474.44;4971798;28;20062;-80
2023/08/16 01:20:37;;;;;;;4.78;3.92;;;;;;;21.25;67.83;97464.91;4935966;28;20478;-81
2023/08/16 01:23:12;;;;;;;4.13;3.80;;;;;;;21.39;67.67;97481.47;4960192;28;20038;-81
2023/08/16 01:25:50;;;;;;;4.38;3.95;;;;;;;21.49;67.95;97481.22;4971391;28;20066;-80
2023/08/16 01:28:17;;;;;;;4.80;4.40;;;;;;;21.41;67.71;97486.47;4939601;28;20038;-81
2023/08/16 01:30:45;;;;;;;3.95;3.42;;;;;;;21.48;67.76;97492.13;4955652;28;20133;-81
2023/08/16 01:33:11;;;;;;;4.80;4.40;;;;;;;21.30;68.56;97499.19;4955066;28;20033;-81
2023/08/16 01:35:37;;;;;;;4.38;4.07;;;;;;;21.43;68.21;97522.16;4936292;28;20086;-81
2023/08/16 01:38:04;;;;;;;3.75;3.40;;;;;;;21.54;67.95;97521.91;4977631;28;20441;-81
2023/08/16 01:40:40;;;;;;;3.75;3.40;;;;;;;21.77;67.33;97531.34;4971617;28;20397;-81
2023/08/16 01:43:06;;;;;;;4.25;3.53;;;;;;;21.62;68.15;97529.88;4945116;28;20039;-81
2023/08/16 01:45:32;;;;;;;4.50;4.10;;;;;;;21.48;68.48;97519.41;4971847;28;20034;-80
2023/08/16 01:47:58;;;;;;;4.38;3.97;;;;;;;21.42;68.75;97510.00;4974602;28;20367;-81
2023/08/16 01:50:23;;;;;;;4.15;3.85;;;;;;;21.49;69.26;97509.59;4947455;28;20394;-80
2023/08/16 01:52:49;;;;;;;3.80;3.50;;;;;;;21.40;69.12;97493.63;4954678;28;20089;-81
2023/08/16 01:55:14;;;;;;;4.38;3.97;;;;;;;21.42;69.16;97488.03;4953810;28;20109;-81
2023/08/16 01:57:40;;;;;;;5.30;4.15;;;;;;;21.46;68.93;97489.78;4955737;28;20037;-81
2023/08/16 02:00:06;;;;;;;3.92;3.63;;;;;;;21.43;68.80;97479.00;4937779;28;20119;-80
2023/08/16 02:02:31;;;;;;;4.47;3.70;;;;;;;21.39;69.18;97468.25;4937034;28;20038;-80
2023/08/16 02:04:57;;;;;;;3.75;3.45;;;;;;;21.48;69.04;97470.94;4987668;28;20524;-80
2023/08/16 02:07:23;;;;;;;4.88;3.83;;;;;;;21.46;68.93;97463.28;4955507;28;20085;-81
2023/08/16 02:09:48;;;;;;;4.10;3.35;;;;;;;21.37;69.19;97443.94;4971587;28;20026;-86
2023/08/16 02:12:14;;;;;;;5.22;3.85;;;;;;;21.41;69.04;97439.56;4987002;28;20034;-81
2023/08/16 02:14:42;;;;;;;4.18;3.83;;;;;;;21.49;69.11;97419.53;4987480;28;20042;-81
2023/08/16 02:17:07;;;;;;;4.50;4.00;;;;;;;21.36;68.93;97420.41;4956096;28;20079;-81
2023/08/16 02:19:33;;;;;;;3.80;3.45;;;;;;;21.65;68.53;97433.88;4971487;28;20113;-82
2023/08/16 02:21:58;;;;;;;4.78;3.47;;;;;;;21.70;68.23;97439.03;4956165;28;20042;-82
2023/08/16 02:24:23;;;;;;;3.88;3.58;;;;;;;21.60;68.23;97438.53;4983439;28;20575;-82
2023/08/16 02:26:49;;;;;;;3.58;3.25;;;;;;;21.59;67.95;97436.97;4975111;28;20263;-81
2023/08/16 02:29:14;;;;;;;3.33;3.13;;;;;;;21.42;68.47;97445.63;4976149;28;20038;-81
2023/08/16 02:31:39;;;;;;;4.15;3.70;;;;;;;21.31;69.03;97448.56;4972702;28;20041;-82
2023/08/16 02:34:05;;;;;;;3.85;3.50;;;;;;;21.23;69.50;97444.06;4958740;28;20045;-82
2023/08/16 02:36:30;;;;;;;4.22;3.83;;;;;;;21.33;69.56;97458.88;4991095;28;20034;-81
2023/08/16 02:38:56;;;;;;;5.00;4.53;;;;;;;21.39;69.61;97455.00;4958536;28;20030;-81
2023/08/16 02:41:21;;;;;;;4.40;4.03;;;;;;;21.24;69.96;97428.94;4957820;28;20375;-81
2023/08/16 02:43:48;;;;;;;4.15;3.80;;;;;;;21.42;69.30;97461.53;4974630;28;20474;-81
2023/08/16 02:46:14;;;;;;;4.28;3.50;;;;;;;21.37;69.34;97443.94;4981343;28;20211;-81
2023/08/16 02:48:39;;;;;;;4.13;3.83;;;;;;;21.41;69.09;97452.81;4964909;28;20117;-82
2023/08/16 02:51:05;;;;;;;4.00;3.60;;;;;;;21.33;68.98;97440.31;4982912;28;20069;-82
2023/08/16 02:53:30;;;;;;;4.03;3.67;;;;;;;21.39;69.23;97449.69;4993065;28;20038;-81
2023/08/16 02:55:55;;;;;;;4.13;3.78;;;;;;;21.32;69.03;97447.50;5011009;28;20125;-82
2023/08/16 02:58:21;;;;;;;3.70;3.40;;;;;;;21.38;69.10;97452.66;4974517;28;20478;-82
2023/08/16 03:00:50;;;;;;;4.10;3.65;;;;;;;21.33;69.20;97449.06;4989074;28;20408;-82
2023/08/16 03:03:16;;;;;;;4.15;3.85;;;;;;;21.31;69.04;97456.50;4974752;28;20049;-82
2023/08/16 03:05:41;;;;;;;4.15;3.85;;;;;;;21.25;69.31;97447.16;4981918;28;20042;-83
2023/08/16 03:08:07;;;;;;;4.82;3.80;;;;;;;21.26;69.15;97447.94;4973865;28;20038;-81
2023/08/16 03:10:33;;;;;;;4.13;3.83;;;;;;;21.27;69.25;97446.88;4974052;28;20105;-81
2023/08/16 03:12:59;;;;;;;4.60;4.20;;;;;;;21.23;69.19;97437.94;4961515;28;20484;-81
2023/08/16 03:15:24;;;;;;;4.47;4.13;;;;;;;21.22;69.24;97433.75;5011426;28;20030;-81
2023/08/16 03:17:49;;;;;;;4.65;4.15;;;;;;;21.19;69.36;97432.50;4978347;28;20124;-82
2023/08/16 03:20:15;;;;;;;4.70;4.30;;;;;;;21.25;69.18;97433.94;4973737;28;20031;-81
2023/08/16 03:22:40;;;;;;;4.95;4.18;;;;;;;21.30;69.08;97439.09;4957508;28;20469;-87
2023/08/16 03:25:08;;;;;;;4.63;4.22;;;;;;;21.26;69.34;97432.81;4973843;28;20543;-86
2023/08/16 03:27:33;;;;;;;4.43;4.13;;;;;;;21.32;69.20;97439.56;4957975;28;20057;-86
2023/08/16 03:29:59;;;;;;;4.90;4.50;;;;;;;21.22;69.33;97429.25;4945130;28;20490;-87
2023/08/16 03:32:24;;;;;;;5.32;4.40;;;;;;;21.20;69.13;97434.06;4976392;28;20034;-87
2023/08/16 03:34:49;;;;;;;6.90;4.50;;;;;;;21.16;69.61;97437.63;4970646;28;20046;-86
2023/08/16 03:37:15;;;;;;;5.78;5.05;;;;;;;21.12;69.72;97435.59;4941513;28;20553;-88
2023/08/16 03:39:40;;;;;;;4.80;4.20;;;;;;;21.19;69.56;97439.66;4968694;28;20473;-87
2023/08/16 03:42:05;;;;;;;4.88;4.45;;;;;;;21.20;69.90;97443.84;4975594;28;20030;-86
2023/08/16 03:44:31;;;;;;;5.18;4.68;;;;;;;21.13;69.72;97442.44;4989596;28;20398;-87
2023/08/16 03:46:57;;;;;;;5.00;4.50;;;;;;;21.09;69.81;97438.84;4978804;28;20101;-87
2023/08/16 03:49:22;;;;;;;4.40;4.00;;;;;;;21.21;69.57;97442.78;4973458;28;20248;-87
2023/08/16 03:51:48;;;;;;;4.28;3.97;;;;;;;21.19;69.63;97461.63;4963621;28;20485;-86
2023/08/16 03:54:13;;;;;;;4.53;4.18;;;;;;;21.44;69.13;97468.09;4975795;28;20069;-86
2023/08/16 03:56:39;;;;;;;4.50;4.10;;;;;;;21.38;68.61;97460.59;4979375;28;20046;-86
2023/08/16 03:59:04;;;;;;;4.50;4.10;;;;;;;21.42;69.22;97467.63;4973219;28;20029;-86
2023/08/16 04:01:30;;;;;;;4.55;4.15;;;;;;;21.37;69.53;97473.06;4956386;28;20034;-86
2023/08/16 04:03:55;;;;;;;4.18;3.83;;;;;;;21.33;69.52;97469.47;4976998;28;20041;-86
2023/08/16 04:06:21;;;;;;;4.15;3.80;;;;;;;21.33;69.66;97475.56;4965267;28;20389;-87
2023/08/16 04:08:46;;;;;;;4.25;3.90;;;;;;;21.31;69.41;97471.63;4964718;28;20034;-86
2023/08/16 04:11:11;;;;;;;4.57;4.20;;;;;;;21.35;69.54;97477.09;4983663;28;20030;-86
2023/08/16 04:13:37;;;;;;;4.32;4.03;;;;;;;21.39;69.86;97492.06;4987444;28;20112;-86
2023/08/16 04:16:03;;;;;;;4.00;3.70;;;;;;;21.41;69.61;97487.25;4972850;28;20030;-86
2023/08/16 04:18:28;;;;;;;4.40;3.97;;;;;;;21.44;69.15;97494.59;4980294;28;20034;-86
2023/08/16 04:20:54;;;;;;;5.88;5.28;;;;;;;21.42;69.79;97488.03;4956606;28;20030;-86
2023/08/16 04:23:21;;;;;;;5.72;5.22;;;;;;;21.35;69.70;97456.69;4980925;28;20086;-87
2023/08/16 04:25:46;;;;;;;4.95;4.55;;;;;;;21.40;69.78;97443.28;4956495;28;20521;-88
2023/08/16 04:28:11;;;;;;;5.75;5.25;;;;;;;21.37;70.06;97446.59;4958160;28;20037;-86
2023/08/16 04:30:37;;;;;;;5.13;4.57;;;;;;;21.31;69.55;97445.91;4972751;28;20548;-86
2023/08/16 04:33:02;;;;;;;4.40;4.00;;;;;;;21.58;69.10;97469.88;4955727;28;20035;-82
2023/08/16 04:35:28;;;;;;;6.68;4.60;;;;;;;21.44;69.51;97460.16;4963638;28;20402;-82
2023/08/16 04:37:53;;;;;;;4.88;4.40;;;;;;;21.36;68.96;97442.34;4972869;28;20034;-82
2023/08/16 04:40:18;;;;;;;6.28;4.75;;;;;;;21.30;69.75;97456.81;4971721;28;20262;-82
2023/08/16 04:42:44;;;;;;;4.97;4.47;;;;;;;21.27;69.61;97454.81;4987227;28;20038;-83
2023/08/16 04:45:10;;;;;;;5.13;4.72;;;;;;;21.23;69.30;97443.25;4970133;28;20056;-82
2023/08/16 04:47:35;;;;;;;4.68;4.28;;;;;;;21.28;69.27;97456.34;4959874;28;20512;-82
2023/08/16 04:50:03;;;;;;;5.40;4.78;;;;;;;21.26;69.20;97453.25;4950287;28;20042;-82
2023/08/16 04:52:29;;;;;;;5.00;4.60;;;;;;;21.20;69.56;97449.97;4986056;28;20812;-81
2023/08/16 04:54:54;;;;;;;4.55;4.18;;;;;;;21.39;69.43;97473.53;4989100;28;20042;-82
2023/08/16 04:57:20;;;;;;;4.43;4.03;;;;;;;21.35;69.14;97469.94;4954832;28;20125;-81
2023/08/16 04:59:45;;;;;;;4.32;3.92;;;;;;;21.33;69.39;97453.56;4960276;28;20077;-82
2023/08/16 05:02:10;;;;;;;5.88;4.40;;;;;;;21.17;69.36;97444.50;4971487;28;20045;-81
2023/08/16 05:04:36;;;;;;;29.52;4.85;;;;;;;21.23;69.08;97449.34;5002415;28;20486;-82
2023/08/16 05:07:01;;;;;;;4.03;3.03;;;;;;;21.17;69.34;97455.84;4971258;28;20041;-81
2023/08/16 05:09:27;;;;;;;3.10;2.90;;;;;;;21.20;69.20;97449.16;4955227;28;20023;-82
2023/08/16 05:11:52;;;;;;;9.00;3.85;;;;;;;21.10;69.38;97451.00;4942921;28;20041;-82
2023/08/16 05:14:17;;;;;;;3.35;3.10;;;;;;;21.17;69.48;97445.25;4973457;28;20082;-81
2023/08/16 05:16:43;;;;;;;3.25;3.05;;;;;;;21.20;69.64;97449.97;4984223;28;20033;-81
2023/08/16 05:19:08;;;;;;;2.88;2.67;;;;;;;21.26;69.94;97461.19;4997656;28;20148;-81
2023/08/16 05:21:33;;;;;;;3.70;3.40;;;;;;;21.31;70.03;97453.09;5005245;28;20045;-82
2023/08/16 05:23:59;;;;;;;6.00;3.92;;;;;;;21.31;70.23;97451.22;4960845;28;20037;-81
2023/08/16 05:26:24;;;;;;;4.60;4.20;;;;;;;21.29;70.03;97437.50;4994975;28;20185;-81
2023/08/16 05:28:50;;;;;;;4.60;4.20;;;;;;;21.44;70.10;97464.69;4970719;28;20478;-81
2023/08/16 05:31:15;;;;;;;4.55;4.15;;;;;;;21.50;70.14;97455.50;4970895;28;20445;-81
2023/08/16 05:33:41;;;;;;;4.32;4.03;;;;;;;21.55;69.89;97465.97;4972313;28;20030;-82
2023/08/16 05:36:06;;;;;;;4.85;4.45;;;;;;;21.51;70.08;97460.50;4987441;28;20042;-82
2023/08/16 05:38:32;;;;;;;5.10;4.57;;;;;;;21.51;70.41;97455.22;4955199;28;20336;-82
2023/08/16 05:40:59;;;;;;;4.57;4.18;;;;;;;21.61;70.21;97471.88;4971272;28;20060;-82
2023/08/16 05:43:24;;;;;;;4.60;4.20;;;;;;;21.70;69.82;97486.72;4984473;28;20123;-87
2023/08/16 05:45:50;;;;;;;4.30;3.90;;;;;;;21.71;70.30;97479.53;4955552;28;20078;-86
2023/08/16 05:48:15;;;;;;;4.70;4.30;;;;;;;21.75;70.30;97490.34;4970935;28;20046;-87
2023/08/16 05:50:41;;;;;;;8.80;5.60;;;;;;;21.66;70.54;97480.50;4968595;28;20045;-88
2023/08/16 05:53:07;;;;;;;5.90;4.75;;;;;;;21.78;70.29;97487.03;4964955;28;20057;-88
2023/08/16 05:55:33;;;;;;;4.70;4.30;;;;;;;21.89;70.13;97483.00;4955102;28;20092;-87
2023/08/16 05:57:58;;;;;;;4.50;4.10;;;;;;;21.88;70.08;97500.00;4976801;28;20400;-86
2023/08/16 06:00:23;;;;;;;5.22;4.65;;;;;;;21.83;70.07;97493.00;4970409;28;20250;-85
2023/08/16 06:02:49;;;;;;;6.47;5.20;;;;;;;21.85;69.99;97490.03;4979697;28;20577;-87
2023/08/16 06:05:15;;;;;;;4.93;4.47;;;;;;;21.94;70.12;97498.00;4960375;28;20486;-86
2023/08/16 06:07:40;;;;;;;5.00;4.60;;;;;;;22.04;70.16;97508.31;4978397;28;20485;-86
2023/08/16 06:10:06;;;;;;;6.07;5.35;;;;;;;22.07;70.22;97510.31;4994371;28;20038;-86
2023/08/16 06:12:31;;;;;;;5.90;5.40;;;;;;;22.13;70.12;97516.25;4965781;28;20041;-87
2023/08/16 06:14:57;;;;;;;6.03;5.43;;;;;;;22.13;70.26;97506.44;4974445;28;20034;-86
2023/08/16 06:17:23;;;;;;;6.40;5.80;;;;;;;22.21;70.38;97504.88;4982851;28;20479;-87
2023/08/16 06:19:48;;;;;;;15.80;7.35;;;;;;;22.19;70.59;97502.53;4958793;28;20402;-87
2023/08/16 06:22:13;;;;;;;12.23;6.55;;;;;;;22.21;70.40;97496.94;4976031;28;20038;-86
2023/08/16 06:24:39;;;;;;;15.02;6.80;;;;;;;22.35;70.25;97502.09;4997505;28;20030;-86
2023/08/16 06:27:05;;;;;;;34.83;7.57;;;;;;;22.37;70.11;97505.22;4975024;28;20034;-87
2023/08/16 06:29:31;;;;;;;14.80;6.18;;;;;;;22.39;69.74;97505.66;4974445;28;20039;-87
2023/08/16 06:31:57;;;;;;;41.13;8.63;;;;;;;22.36;70.59;97501.78;4958293;28;20385;-87
2023/08/16 06:34:26;;;;;;;34.58;7.38;;;;;;;22.43;70.44;97506.59;4990942;28;20038;-87
2023/08/16 06:36:52;;;;;;;10.93;6.85;;;;;;;22.46;70.47;97500.66;4974772;28;20546;-87
2023/08/16 06:39:17;;;;;;;37.72;8.38;;;;;;;22.41;70.81;97501.63;5010342;28;20116;-86
2023/08/16 06:41:43;;;;;;;45.83;8.23;;;;;;;22.35;71.08;97502.88;4993358;28;20113;-86
2023/08/16 06:44:08;;;;;;;24.92;6.72;;;;;;;22.34;70.73;97497.88;4985824;28;20030;-87
2023/08/16 06:46:34;;;;;;;10.30;6.07;;;;;;;22.50;70.60;97508.78;5010801;28;20524;-88
2023/08/16 06:49:00;;;;;;;9.15;6.35;;;;;;;22.53;70.76;97514.22;4974652;28;20046;-87
2023/08/16 06:51:25;;;;;;;7.90;6.43;;;;;;;22.58;70.64;97513.31;4985666;28;20658;-83
2023/08/16 06:53:51;;;;;;;8.88;7.15;;;;;;;22.73;70.58;97523.44;4977641;28;20033;-82
2023/08/16 06:56:16;;;;;;;10.75;7.75;;;;;;;22.72;70.96;97511.28;4993927;28;20042;-81
2023/08/16 06:58:41;;;;;;;12.52;8.13;;;;;;;22.90;71.38;97525.28;4994117;28;20026;-82
2023/08/16 07:01:08;;;;;;;12.50;9.60;;;;;;;22.92;71.88;97520.41;4977989;28;20042;-81
2023/08/16 07:03:34;;;;;;;25.70;10.43;;;;;;;23.03;71.58;97533.34;5011737;28;20084;-82
2023/08/16 07:05:59;;;;;;;19.48;9.82;;;;;;;23.02;71.72;97514.00;4995128;28;20137;-81
2023/08/16 07:08:25;;;;;;;27.67;10.52;;;;;;;23.02;71.95;97529.94;4994399;28;20544;-80
2023/08/16 07:10:50;;;;;;;17.13;10.27;;;;;;;22.95;72.09;97527.75;4993891;28;20034;-81
2023/08/16 07:13:16;;;;;;;12.90;9.27;;;;;;;23.04;71.87;97530.38;4977029;28;20080;-81
2023/08/16 07:15:41;;;;;;;13.63;9.30;;;;;;;;;;4975255;28;20041;-82
2023/08/16 07:18:06;;;;;;;16.08;11.50;;;;;;;23.17;72.00;97531.31;4992291;28;20073;-82
2023/08/16 07:20:32;;;;;;;15.20;10.68;;;;;;;23.27;72.32;97540.81;4962706;28;20037;-81
2023/08/16 07:22:58;;;;;;;14.63;9.65;;;;;;;23.37;72.10;97532.47;4978164;28;20033;-81
2023/08/16 07:25:26;;;;;;;15.98;11.20;;;;;;;23.49;72.08;97537.13;4994276;28;20045;-81
2023/08/16 07:27:51;;;;;;;12.98;10.02;;;;;;;23.63;72.02;97534.25;4959269;28;20045;-81
2023/08/16 07:30:17;;;;;;;15.68;11.43;;;;;;;23.91;71.28;97537.25;5011068;28;20034;-81
2023/08/16 07:32:42;;;;;;;16.00;11.93;;;;;;;24.07;71.43;97538.22;4974991;28;20509;-82
2023/08/16 07:35:09;;;;;;;15.85;11.98;;;;;;;24.34;70.74;97536.16;4973107;28;20045;-81
2023/08/16 07:37:35;;;;;;;11.73;10.43;;;;;;;24.67;69.68;97540.75;4958776;28;20035;-81
2023/08/16 07:40:00;;;;;;;10.65;8.80;;;;;;;24.84;69.81;97535.25;4990060;28;20494;-81
2023/08/16 07:42:26;;;;;;;10.95;8.65;;;;;;;24.95;68.85;97542.81;4957601;28;20085;-81
2023/08/16 07:44:51;;;;;;;9.73;8.75;;;;;;;24.93;68.65;97526.41;4989002;28;20084;-80
2023/08/16 07:47:18;;;;;;;9.57;8.57;;;;;;;25.10;68.16;97550.19;4981505;28;20056;-81
2023/08/16 07:49:43;;;;;;;9.02;8.00;;;;;;;25.17;67.86;97539.78;4987050;28;20031;-80
2023/08/16 07:52:09;;;;;;;9.82;8.82;;;;;;;25.18;68.34;97538.66;4966096;28;20440;-81
2023/08/16 07:54:34;;;;;;;8.77;7.88;;;;;;;25.16;67.78;97534.78;4996870;28;20030;-81
2023/08/16 07:56:59;;;;;;;7.32;6.63;;;;;;;25.28;67.93;97542.03;4973093;28;20567;-81
2023/08/16 07:59:25;;;;;;;8.32;7.53;;;;;;;25.22;68.18;97531.56;4981554;28;20034;-80
2023/08/16 08:01:51;;;;;;;8.90;8.00;;;;;;;25.19;67.89;97532.22;4989215;28;20038;-80
2023/08/16 08:04:18;;;;;;;9.15;8.25;;;;;;;25.17;68.52;97537.13;4974378;28;20030;-81
2023/08/16 08:06:44;;;;;;;8.95;8.05;;;;;;;25.26;68.15;97530.91;4974718;28;20216;-81
2023/08/16 08:09:09;;;;;;;9.02;8.10;;;;;;;25.30;68.13;97545.16;4973899;28;20088;-82
2023/08/16 08:11:36;;;;;;;9.77;8.27;;;;;;;25.35;66.92;97550.25;4958538;28;20033;-81
2023/08/16 08:14:02;;;;;;;8.98;8.07;;;;;;;25.34;67.60;97546.03;4973787;28;20034;-80
2023/08/16 08:16:28;;;;;;;8.55;7.68;;;;;;;25.32;67.67;97548.25;4958201;28;20509;-80
2023/08/16 08:18:53;;;;;;;7.85;7.15;;;;;;;25.42;67.71;97542.50;4964441;28;20031;-81
2023/08/16 08:21:18;;;;;;;7.50;6.80;;;;;;;25.59;67.79;97546.81;4974526;28;20086;-81
2023/08/16 08:23:44;;;;;;;8.18;7.43;;;;;;;25.86;66.55;97544.56;4974923;28;20112;-80
2023/08/16 08:26:10;;;;;;;7.32;6.63;;;;;;;25.89;66.23;97544.69;4976608;28;20532;-80
2023/08/16 08:28:36;;;;;;;7.85;7.05;;;;;;;26.21;66.17;97536.09;4974112;28;20398;-78
2023/08/16 08:31:02;;;;;;;7.45;6.57;;;;;;;26.22;64.89;97540.31;4957661;28;20046;-79
2023/08/16 08:33:28;;;;;;;7.20;6.60;;;;;;;26.32;65.32;97540.63;4982878;28;20030;-80
2023/08/16 08:35:54;;;;;;;7.05;6.45;;;;;;;26.86;64.33;97541.31;4975952;28;20034;-77
2023/08/16 08:38:19;;;;;;;6.35;5.85;;;;;;;26.97;63.01;97539.66;4990734;28;20286;-77
2023/08/16 08:40:44;;;;;;;5.95;5.45;;;;;;;27.28;61.92;97546.19;4976297;28;20477;-78
2023/08/16 08:43:10;;;;;;;6.82;6.20;;;;;;;27.14;62.64;97548.50;4990713;28;20549;-79
2023/08/16 08:45:37;;;;;;;6.22;5.72;;;;;;;27.23;62.29;97559.78;4976930;28;20062;-78
2023/08/16 08:48:03;;;;;;;5.97;5.40;;;;;;;27.25;61.45;97538.84;4996945;28;20030;-79
2023/08/16 08:50:28;;;;;;;6.15;5.63;;;;;;;27.28;61.97;97546.97;4973498;28;20089;-78
2023/08/16 08:52:56;;;;;;;5.68;5.20;;;;;;;27.19;63.30;97550.91;4973489;28;20038;-76
2023/08/16 08:55:23;;;;;;;5.63;5.13;;;;;;;27.32;62.41;97546.28;4957881;28;20633;-77
2023/08/16 08:57:50;;;;;;;5.93;5.45;;;;;;;27.58;61.89;97551.09;4974241;28;20498;-78
2023/08/16 09:00:24;;;;;;;6.97;5.53;;;;;;;27.63;61.42;97548.16;5000164;28;20038;-78
2023/08/16 09:02:50;;;;;;;5.75;5.25;;;;;;;27.90;61.61;97551.03;4983711;28;20038;-77
2023/08/16 09:05:18;;;;;;;5.97;5.47;;;;;;;28.07;60.19;97557.91;4970472;28;20046;-78
2023/08/16 09:07:44;;;;;;;5.72;5.28;;;;;;;28.24;60.87;97543.34;4986606;28;20069;-78
2023/08/16 09:10:11;;;;;;;5.30;4.88;;;;;;;28.29;59.47;97548.44;4972891;28;20034;-77
2023/08/16 09:12:37;;;;;;;6.03;5.15;;;;;;;28.26;60.32;97549.94;4972213;28;20041;-78
2023/08/16 09:15:03;;;;;;;5.45;4.95;;;;;;;28.07;59.61;97553.38;4972852;28;20033;-78
2023/08/16 09:17:29;;;;;;;5.45;5.00;;;;;;;27.94;59.92;97552.69;4995965;28;20042;-78
2023/08/16 09:19:54;;;;;;;5.43;5.03;;;;;;;27.98;60.58;97550.09;4965348;28;20108;-78
2023/08/16 09:22:20;;;;;;;5.03;4.57;;;;;;;27.77;60.35;97551.16;4958899;28;20046;-78
2023/08/16 09:24:45;;;;;;;5.20;4.68;;;;;;;27.55;60.88;97549.88;4977883;28;20117;-78
2023/08/16 09:27:11;;;;;;;4.70;4.40;;;;;;;27.62;62.12;97552.75;4972362;28;20517;-78
2023/08/16 09:29:40;;;;;;;5.50;5.10;;;;;;;27.68;62.01;97545.22;4971563;28;20030;-78
2023/08/16 09:32:07;;;;;;;5.00;4.60;;;;;;;27.76;61.85;97530.88;4973703;28;20403;-78
2023/08/16 09:34:32;;;;;;;5.00;4.60;;;;;;;27.92;61.40;97540.81;4976111;28;20371;-84
2023/08/16 09:37:00;;;;;;;5.45;4.97;;;;;;;28.28;60.99;97531.59;4975654;28;20030;-83
2023/08/16 09:39:26;;;;;;;5.25;4.75;;;;;;;28.58;58.59;97534.50;4995518;28;20054;-83
2023/08/16 09:41:52;;;;;;;5.00;4.70;;;;;;;29.13;59.37;97536.22;4979210;28;20034;-87
2023/08/16 09:44:18;;;;;;;5.40;4.63;;;;;;;29.59;59.12;97530.81;4984563;28;20034;-86
2023/08/16 09:46:44;;;;;;;4.80;4.50;;;;;;;29.95;59.10;97531.34;4964131;28;20061;-87
2023/08/16 09:49:10;;;;;;;4.93;4.53;;;;;;;30.04;56.15;97531.84;4978322;28;20108;-83
2023/08/16 09:51:37;;;;;;;4.65;4.30;;;;;;;29.99;54.91;97520.66;4994983;28;20509;-84
2023/08/16 09:54:13;;;;;;;4.72;4.43;;;;;;;30.00;53.88;97520.28;4978050;28;20549;-85
2023/08/16 09:56:40;;;;;;;4.22;3.83;;;;;;;29.96;54.40;97516.78;4965343;28;20038;-84
2023/08/16 09:59:09;;;;;;;4.45;4.15;;;;;;;29.84;55.02;97520.47;4959943;28;20034;-83
2023/08/16 10:01:35;;;;;;;4.28;3.97;;;;;;;29.79;53.99;97515.41;4973634;28;20038;-84
2023/08/16 10:04:02;;;;;;;4.15;3.85;;;;;;;29.97;52.12;97515.66;4991147;28;20398;-82
2023/08/16 10:06:29;;;;;;;4.10;3.80;;;;;;;30.41;52.75;97517.72;4967974;28;20295;-86
2023/08/16 10:08:55;;;;;;;4.40;4.10;;;;;;;30.54;51.54;97506.75;4978975;28;20038;-84
2023/08/16 10:11:22;;;;;;;4.22;3.92;;;;;;;30.54;51.12;97515.56;4974630;28;20097;-85
2023/08/16 10:13:48;;;;;;;3.78;3.47;;;;;;;30.29;52.03;97509.13;4974934;28;20038;-82
2023/08/16 10:16:15;;;;;;;4.05;3.75;;;;;;;30.20;52.42;97514.78;4992359;28;20105;-84
2023/08/16 10:18:43;;;;;;;4.40;3.88;;;;;;;30.50;53.05;97508.59;4975213;28;20026;-82
2023/08/16 10:21:15;;;;;;;4.50;4.00;;;;;;;30.55;50.77;97508.28;4974349;28;20485;-83
2023/08/16 10:23:41;;;;;;;3.80;3.60;;;;;;;30.81;51.57;97510.06;4974728;28;20076;-85
2023/08/16 10:26:13;;;;;;;7.78;4.07;;;;;;;31.03;49.21;97500.28;4967652;28;20505;-85
2023/08/16 10:28:41;;;;;;;3.85;3.55;;;;;;;31.03;49.40;97505.66;4989075;28;20046;-85
2023/08/16 10:31:07;;;;;;;3.40;3.20;;;;;;;30.91;49.06;97501.31;4958340;28;20069;-85
2023/08/16 10:33:43;;;;;;;3.70;3.40;;;;;;;31.03;47.98;97502.97;4974895;28;20454;-86
2023/08/16 10:36:10;;;;;;;4.07;3.78;;;;;;;30.99;49.71;97507.56;4958965;28;20034;-85
2023/08/16 10:38:36;;;;;;;3.70;3.40;;;;;;;31.22;45.84;97496.59;4966486;28;20039;-86
2023/08/16 10:41:02;;;;;;;3.58;3.38;;;;;;;31.42;46.49;97499.06;4958144;28;20482;-87
2023/08/16 10:43:32;;;;;;;3.33;3.13;;;;;;;31.73;48.03;97492.34;4977135;28;20448;-87
2023/08/16 10:45:57;;;;;;;3.60;3.40;;;;;;;31.65;47.51;97480.78;4984228;28;20425;-87
2023/08/16 10:48:23;;;;;;;3.55;3.25;;;;;;;31.46;47.89;97483.69;4977559;28;20080;-87
2023/08/16 10:50:58;;;;;;;3.40;3.17;;;;;;;31.74;47.64;97473.13;4986430;28;20042;-84
2023/08/16 10:53:25;;;;;;;3.25;3.05;;;;;;;31.43;47.75;97479.84;4966279;28;20042;-84
2023/08/16 10:55:55;;;;;;;3.53;3.22;;;;;;;32.10;47.17;97480.63;4958090;28;20034;-83
2023/08/16 10:58:23;;;;;;;2.90;2.70;;;;;;;32.07;46.81;97473.28;4974506;28;20108;-86
2023/08/16 11:01:04;;;;;;;3.50;3.30;;;;;;;32.21;46.14;97459.09;4974275;28;20038;-85
2023/08/16 11:03:33;;;;;;;2.88;2.67;;;;;;;32.10;44.16;97472.53;4983279;28;20145;-85
2023/08/16 11:06:00;;;;;;;3.22;3.03;;;;;;;32.41;43.61;97460.28;4973787;28;20042;-87
2023/08/16 11:08:30;;;;;;;3.20;3.00;;;;;;;32.54;44.80;97463.38;4965807;28;20050;-87
2023/08/16 11:10:56;;;;;;;3.13;2.92;;;;;;;32.38;43.88;97460.28;4977235;28;20037;-86
2023/08/16 11:13:22;;;;;;;2.90;2.70;;;;;;;32.82;42.93;97457.28;4961078;28;20034;-87
2023/08/16 11:15:47;;;;;;;2.70;2.60;;;;;;;32.68;42.04;97454.59;4993591;28;20036;-84
2023/08/16 11:18:13;;;;;;;3.10;2.90;;;;;;;32.72;43.38;97454.59;4985233;28;20443;-83
2023/08/16 11:20:41;;;;;;;3.00;2.80;;;;;;;32.42;43.30;97455.66;5001353;28;20029;-83
2023/08/16 11:23:06;;;;;;;3.30;3.00;;;;;;;32.57;43.99;97457.22;4984349;28;20245;-86
2023/08/16 11:25:33;;;;;;;2.90;2.70;;;;;;;32.41;42.23;97454.13;4988771;28;20402;-85
2023/08/16 11:28:05;;;;;;;3.33;2.92;;;;;;;32.52;44.47;97454.13;4990216;28;20125;-83